Time;durP1;ratioP1;P1;durP2;ratioP2;P2;SDS_P1;SDS_P2;PMS_P1;PMS_P2;Temp;Humidity;BMP_temperature;BMP_pressure;BME280_temperature;BME280_humidity;BME280_pressure;Samples;Min_cycle;Max_cycle;Signal;HPM_P1;HPM_P2
2022/10/18 00:01:13;;;;;;;3.63;3.33;;;17.10;43.60;;;;;;10389890;28;20221;-69
2022/10/18 00:06:16;;;;;;;3.87;3.47;;;17.10;43.70;;;;;;10384454;28;20232;-69
2022/10/18 00:11:20;;;;;;;4.87;3.30;;;17.10;43.30;;;;;;10383490;28;20238;-69
2022/10/18 00:16:25;;;;;;;3.03;2.83;;;17.00;43.50;;;;;;10383158;28;20226;-69
2022/10/18 00:21:28;;;;;;;5.87;3.20;;;17.00;43.60;;;;;;10388244;28;20230;-69
2022/10/18 00:26:32;;;;;;;2.97;2.77;;;17.00;43.40;;;;;;10390769;28;20225;-69
2022/10/18 00:31:37;;;;;;;3.17;2.97;;;16.90;43.30;;;;;;10385749;28;20229;-69
2022/10/18 00:36:41;;;;;;;3.30;3.00;;;16.80;43.40;;;;;;10386776;28;20241;-69
2022/10/18 00:41:45;;;;;;;3.47;2.73;;;16.80;43.30;;;;;;10383649;28;20225;-69
2022/10/18 00:46:50;;;;;;;3.87;2.80;;;16.70;43.50;;;;;;10392437;28;21163;-69
2022/10/18 00:51:57;;;;;;;3.53;3.00;;;16.70;43.50;;;;;;10383565;28;20736;-69
2022/10/18 00:57:01;;;;;;;2.80;2.60;;;16.70;43.60;;;;;;10389808;28;20226;-69
2022/10/18 01:02:06;;;;;;;3.40;2.63;;;16.60;43.60;;;;;;10380348;28;20228;-69
2022/10/18 01:07:32;;;;;;;2.80;2.57;;;16.60;43.80;;;;;;10381639;28;20238;-69
2022/10/18 01:12:47;;;;;;;2.93;2.70;;;16.50;43.80;;;;;;10386361;28;20226;-69
2022/10/18 01:18:00;;;;;;;3.50;3.20;;;16.50;43.80;;;;;;10379324;28;20259;-69
2022/10/18 01:23:09;;;;;;;3.37;3.00;;;16.50;43.80;;;;;;10381998;28;20776;-69
2022/10/18 01:28:24;;;;;;;4.83;2.80;;;16.50;43.50;;;;;;10376063;28;20229;-69
2022/10/18 01:33:35;;;;;;;2.97;2.77;;;16.50;44.40;;;;;;10383521;28;20244;-69
2022/10/18 01:38:40;;;;;;;3.23;3.00;;;16.40;43.70;;;;;;10382697;28;20222;-69
2022/10/18 01:43:46;;;;;;;4.43;3.03;;;16.40;43.30;;;;;;10388873;28;20746;-69
2022/10/18 01:48:52;;;;;;;3.10;2.90;;;16.30;43.20;;;;;;10381419;28;20245;-69
2022/10/18 01:53:56;;;;;;;3.30;2.70;;;16.30;43.40;;;;;;10382588;28;20238;-69
2022/10/18 01:59:29;;;;;;;4.17;2.97;;;16.20;43.20;;;;;;10380310;28;20225;-69
2022/10/18 02:04:42;;;;;;;2.77;2.57;;;16.10;43.40;;;;;;10386152;28;20221;-69
2022/10/18 02:09:51;;;;;;;2.53;2.40;;;16.10;43.70;;;;;;10382355;28;20284;-69
2022/10/18 02:14:56;;;;;;;2.93;2.57;;;16.00;43.80;;;;;;10384335;28;20226;-69
2022/10/18 02:20:03;;;;;;;3.10;2.67;;;16.00;43.80;;;;;;10379155;28;20766;-69
2022/10/18 02:25:11;;;;;;;3.07;2.60;;;16.00;43.90;;;;;;10382638;28;20245;-69
2022/10/18 02:30:15;;;;;;;2.47;2.23;;;15.90;43.90;;;;;;10379354;28;20272;-69
2022/10/18 02:35:25;;;;;;;3.07;2.30;;;15.90;43.90;;;;;;10381543;28;20217;-69
2022/10/18 02:40:30;;;;;;;2.33;2.13;;;15.90;44.10;;;;;;10389011;28;20249;-69
2022/10/18 02:45:33;;;;;;;6.17;3.07;;;15.80;43.90;;;;;;10384452;28;20650;-69
2022/10/18 02:50:38;;;;;;;7.23;3.50;;;15.80;44.00;;;;;;10385792;28;20230;-69
2022/10/18 02:55:41;;;;;;;6.00;3.10;;;15.80;44.20;;;;;;10374214;28;20699;-69
2022/10/18 03:00:44;;;;;;;10.40;3.60;;;15.70;43.80;;;;;;10374722;28;20233;-69
2022/10/18 03:05:51;;;;;;;3.73;3.17;;;15.70;44.00;;;;;;10379391;28;20740;-69
2022/10/18 03:10:54;;;;;;;4.13;2.77;;;15.50;44.80;;;;;;10376236;28;20242;-69
2022/10/18 03:15:57;;;;;;;3.40;2.53;;;15.40;44.40;;;;;;10386137;28;20225;-69
2022/10/18 03:21:05;;;;;;;2.90;2.40;;;15.40;44.70;;;;;;10385690;28;20693;-69
2022/10/18 03:26:09;;;;;;;4.20;2.40;;;15.40;45.10;;;;;;10391562;28;20222;-69
2022/10/18 03:31:12;;;;;;;2.70;2.50;;;15.40;44.70;;;;;;10389326;28;20242;-69
2022/10/18 03:36:17;;;;;;;6.53;2.80;;;15.40;44.70;;;;;;10388449;28;20225;-69
2022/10/18 03:41:20;;;;;;;6.20;2.57;;;15.50;44.80;;;;;;10384116;28;20234;-69
2022/10/18 03:46:23;;;;;;;4.47;2.80;;;15.50;44.80;;;;;;10390111;28;20699;-69
2022/10/18 03:51:28;;;;;;;4.27;2.87;;;15.50;44.80;;;;;;10392587;28;20233;-69
2022/10/18 03:56:31;;;;;;;7.80;3.53;;;15.50;45.10;;;;;;10394881;28;21143;-69
2022/10/18 04:01:34;;;;;;;4.57;3.30;;;15.50;44.80;;;;;;10395753;28;20222;-70
2022/10/18 04:06:39;;;;;;;3.17;2.90;;;15.60;44.90;;;;;;10386169;28;20285;-69
2022/10/18 04:11:42;;;;;;;4.87;3.03;;;15.60;45.00;;;;;;10396438;28;20229;-69
2022/10/18 04:16:45;;;;;;;4.10;3.47;;;15.60;44.90;;;;;;10389386;28;20644;-69
2022/10/18 04:21:50;;;;;;;3.20;2.90;;;15.60;44.90;;;;;;10386826;28;20225;-69
2022/10/18 04:26:53;;;;;;;2.83;2.63;;;15.60;44.90;;;;;;10391424;28;20598;-69
2022/10/18 04:31:56;;;;;;;4.70;2.80;;;15.50;44.80;;;;;;10389042;28;20252;-69
2022/10/18 04:37:00;;;;;;;3.77;3.07;;;15.50;44.80;;;;;;10388017;28;20280;-69
2022/10/18 04:42:03;;;;;;;4.27;2.87;;;15.50;44.80;;;;;;10386407;28;20230;-69
2022/10/18 04:47:07;;;;;;;5.63;3.73;;;15.50;44.80;;;;;;10389755;28;20218;-69
2022/10/18 04:52:11;;;;;;;3.97;3.63;;;15.40;44.70;;;;;;10384685;28;20233;-69
2022/10/18 04:57:14;;;;;;;16.37;4.40;;;15.40;45.10;;;;;;10392215;28;20229;-69
2022/10/18 05:02:17;;;;;;;4.20;3.87;;;15.40;44.80;;;;;;10391978;28;20238;-68
2022/10/18 05:07:22;;;;;;;5.30;4.47;;;15.40;44.90;;;;;;10387435;28;20234;-69
2022/10/18 05:12:25;;;;;;;5.03;4.20;;;15.40;45.60;;;;;;10385621;28;20230;-69
2022/10/18 05:17:28;;;;;;;5.13;3.97;;;15.40;45.10;;;;;;10388160;28;20639;-68
2022/10/18 05:22:32;;;;;;;5.57;3.90;;;15.40;45.30;;;;;;10378050;28;20233;-68
2022/10/18 05:27:36;;;;;;;6.47;4.60;;;15.40;46.30;;;;;;10384801;28;20307;-67
2022/10/18 05:32:39;;;;;;;5.53;3.80;;;15.40;45.80;;;;;;10375234;28;20214;-68
2022/10/18 05:37:43;;;;;;;6.97;3.97;;;15.40;45.70;;;;;;10384038;28;20309;-67
2022/10/18 05:42:47;;;;;;;3.93;3.50;;;15.50;46.00;;;;;;10381399;28;20232;-67
2022/10/18 05:47:50;;;;;;;4.57;3.20;;;15.40;45.50;;;;;;10379669;28;20589;-68
2022/10/18 05:52:57;;;;;;;4.17;3.27;;;15.40;45.40;;;;;;10380888;28;20262;-68
2022/10/18 05:58:20;;;;;;;4.33;3.50;;;15.40;46.30;;;;;;10380573;28;20229;-68
2022/10/18 06:03:23;;;;;;;3.70;3.40;;;15.40;45.80;;;;;;10380738;28;20265;-68
2022/10/18 06:08:28;;;;;;;3.93;3.63;;;15.40;46.00;;;;;;10376182;28;20226;-68
2022/10/18 06:13:31;;;;;;;4.83;4.10;;;15.40;46.60;;;;;;10385181;28;20277;-68
2022/10/18 06:18:35;;;;;;;4.33;3.93;;;15.40;46.40;;;;;;10379322;28;20901;-68
2022/10/18 06:23:40;;;;;;;5.00;4.47;;;15.40;46.60;;;;;;10381639;28;20230;-68
2022/10/18 06:28:43;;;;;;;4.87;4.43;;;15.40;47.10;;;;;;10379345;28;20248;-68
2022/10/18 06:33:47;;;;;;;4.20;3.80;;;15.50;46.80;;;;;;10378528;28;20258;-68
2022/10/18 06:38:51;;;;;;;4.93;3.73;;;15.50;46.80;;;;;;10381686;28;20242;-68
2022/10/18 06:43:56;;;;;;;4.87;3.67;;;15.50;47.50;;;;;;10378671;28;20238;-67
2022/10/18 06:48:59;;;;;;;4.00;3.60;;;15.60;46.90;;;;;;10376393;28;20219;-68
2022/10/18 06:54:04;;;;;;;5.43;3.67;;;15.50;47.00;;;;;;10380869;28;20225;-68
2022/10/18 06:59:20;;;;;;;3.87;3.47;;;15.60;47.60;;;;;;10382476;28;20961;-68
2022/10/18 07:04:23;;;;;;;5.83;3.47;;;15.60;47.10;;;;;;10386859;28;20234;-68
2022/10/18 07:09:28;;;;;;;8.23;3.90;;;15.60;47.40;;;;;;10384894;28;20782;-68
2022/10/18 07:14:31;;;;;;;4.60;3.93;;;15.70;48.10;;;;;;10387528;28;20245;-68
2022/10/18 07:19:34;;;;;;;5.10;3.57;;;15.70;47.70;;;;;;10385369;28;20232;-68
2022/10/18 07:24:38;;;;;;;4.33;3.73;;;15.70;47.80;;;;;;10388163;28;20294;-68
2022/10/18 07:29:41;;;;;;;4.00;3.70;;;15.80;48.70;;;;;;10383927;28;20238;-68
2022/10/18 07:34:44;;;;;;;4.63;3.43;;;15.90;48.30;;;;;;10381362;28;20980;-67
2022/10/18 07:39:49;;;;;;;4.00;3.60;;;15.90;48.30;;;;;;10384841;28;20241;-68
2022/10/18 07:44:52;;;;;;;5.47;3.73;;;16.00;49.00;;;;;;10385605;28;20627;-68
2022/10/18 07:49:55;;;;;;;5.47;3.80;;;16.10;48.70;;;;;;10381215;28;20231;-68
2022/10/18 07:54:59;;;;;;;6.03;4.73;;;16.20;49.00;;;;;;10379234;28;20240;-68
2022/10/18 08:00:03;;;;;;;4.80;4.30;;;16.30;50.10;;;;;;10375138;28;20222;-68
2022/10/18 08:05:06;;;;;;;4.50;4.10;;;16.40;49.60;;;;;;10379984;28;20229;-68
2022/10/18 08:10:11;;;;;;;10.30;4.70;;;16.50;49.80;;;;;;10378957;28;20226;-68
2022/10/18 08:15:14;;;;;;;6.47;5.80;;;16.60;50.60;;;;;;10383548;28;20227;-67
2022/10/18 08:20:17;;;;;;;5.70;4.33;;;16.80;50.20;;;;;;10379782;28;20647;-67
2022/10/18 08:25:34;;;;;;;5.00;4.60;;;16.90;50.30;;;;;;10381768;28;20222;-68
2022/10/18 08:30:42;;;;;;;4.60;4.20;;;17.00;51.00;;;;;;10379295;28;20222;-67
2022/10/18 08:35:55;;;;;;;4.87;4.40;;;17.20;50.40;;;;;;10379240;28;20226;-67
2022/10/18 08:41:02;;;;;;;5.37;4.87;;;17.30;51.90;;;;;;10378133;28;20446;-67
2022/10/18 08:46:05;;;;;;;5.37;4.77;;;17.40;51.50;;;;;;10376709;28;20229;-67
2022/10/18 08:51:29;;;;;;;6.23;4.50;;;17.50;50.70;;;;;;10382376;28;20232;-68
2022/10/18 08:56:34;;;;;;;8.93;5.30;;;17.60;52.30;;;;;;10379412;28;20237;-67
2022/10/18 09:01:46;;;;;;;6.10;5.37;;;17.70;51.90;;;;;;10376862;28;20232;-67
2022/10/18 09:07:02;;;;;;;5.63;5.07;;;17.90;52.60;;;;;;10377983;28;20234;-67
2022/10/18 09:12:19;;;;;;;6.47;5.47;;;18.10;52.90;;;;;;10379051;28;20226;-67
2022/10/18 09:17:32;;;;;;;8.50;5.50;;;18.20;52.60;;;;;;10383387;28;20230;-67
2022/10/18 09:22:49;;;;;;;5.97;5.07;;;18.30;52.40;;;;;;10375385;28;20289;-67
2022/10/18 09:28:09;;;;;;;7.20;5.07;;;18.50;52.60;;;;;;10379845;28;20230;-67
2022/10/18 09:33:26;;;;;;;7.07;4.70;;;18.60;52.50;;;;;;10383441;28;20265;-67
2022/10/18 09:38:33;;;;;;;4.97;4.57;;;18.80;52.30;;;;;;10358965;28;20307;-67
2022/10/18 09:43:49;;;;;;;5.23;4.40;;;19.00;51.70;;;;;;10380451;28;20238;-67
2022/10/18 09:48:57;;;;;;;5.33;4.83;;;19.20;52.00;;;;;;10380739;28;20716;-67
2022/10/18 09:54:10;;;;;;;5.37;4.43;;;19.40;51.90;;;;;;10377432;28;20237;-67
2022/10/18 09:59:29;;;;;;;6.27;5.13;;;19.60;52.00;;;;;;10379471;28;20217;-67
2022/10/18 10:04:33;;;;;;;6.83;4.90;;;19.90;52.50;;;;;;10377095;28;20269;-67
2022/10/18 10:09:43;;;;;;;5.80;5.23;;;20.20;51.50;;;;;;10376479;28;20236;-67
2022/10/18 10:14:48;;;;;;;5.30;4.70;;;20.40;51.80;;;;;;10382126;28;20525;-67
2022/10/18 10:20:00;;;;;;;7.50;5.97;;;20.70;50.80;;;;;;10374071;28;20242;-67
2022/10/18 10:25:05;;;;;;;5.20;4.70;;;21.00;50.60;;;;;;10379682;28;20226;-67
2022/10/18 10:30:24;;;;;;;7.13;5.30;;;21.20;49.80;;;;;;10375637;28;20700;-67
2022/10/18 10:35:32;;;;;;;5.30;4.53;;;21.50;50.10;;;;;;10385080;28;20672;-67
2022/10/18 10:40:55;;;;;;;6.10;4.13;;;21.70;50.00;;;;;;10383904;28;20759;-67
2022/10/18 10:46:06;;;;;;;5.30;4.80;;;21.90;49.70;;;;;;10386134;28;20230;-67
2022/10/18 10:51:10;;;;;;;4.40;4.00;;;22.20;48.70;;;;;;10384205;28;20214;-67
2022/10/18 10:56:33;;;;;;;5.10;3.50;;;22.30;48.90;;;;;;10381155;28;20617;-67
2022/10/18 11:01:37;;;;;;;4.67;3.60;;;22.60;47.70;;;;;;10384945;28;20234;-67
2022/10/18 11:06:59;;;;;;;4.63;3.57;;;22.70;46.70;;;;;;10379708;28;20225;-67
2022/10/18 11:12:12;;;;;;;4.87;3.37;;;22.80;46.30;;;;;;10376980;28;20222;-67
2022/10/18 11:17:25;;;;;;;3.67;3.37;;;22.90;46.10;;;;;;10369700;28;20765;-68
2022/10/18 11:22:33;;;;;;;4.27;3.20;;;23.00;46.30;;;;;;10371874;28;20245;-68
2022/10/18 11:27:42;;;;;;;4.83;3.40;;;23.20;45.80;;;;;;10367702;28;20262;-68
2022/10/18 11:32:57;;;;;;;4.37;3.57;;;23.30;45.50;;;;;;10374263;28;20230;-67
2022/10/18 11:38:10;;;;;;;4.00;3.60;;;23.40;45.20;;;;;;10377205;28;20223;-68
2022/10/18 11:43:18;;;;;;;6.40;3.53;;;23.50;44.90;;;;;;10386847;28;20291;-68
2022/10/18 11:48:45;;;;;;;5.60;3.50;;;23.60;45.20;;;;;;10386077;28;20236;-68
2022/10/18 11:54:03;;;;;;;3.80;3.40;;;23.70;45.00;;;;;;10385027;28;20234;-68
2022/10/18 11:59:28;;;;;;;3.63;3.10;;;23.70;44.30;;;;;;10385488;28;20288;-68
2022/10/18 12:04:36;;;;;;;5.17;3.77;;;23.70;44.70;;;;;;10387477;28;20236;-68
2022/10/18 12:10:01;;;;;;;4.60;3.47;;;23.70;44.20;;;;;;10387740;28;20276;-68
2022/10/18 12:15:14;;;;;;;3.30;3.10;;;23.80;44.50;;;;;;10384741;28;20267;-68
2022/10/18 12:20:24;;;;;;;3.63;3.33;;;23.80;43.60;;;;;;10387581;28;20643;-68
2022/10/18 12:25:29;;;;;;;3.97;3.17;;;23.90;44.00;;;;;;10390295;28;20611;-68
2022/10/18 12:30:42;;;;;;;5.30;3.40;;;23.90;44.60;;;;;;10383459;28;20240;-68
2022/10/18 12:35:59;;;;;;;3.40;3.10;;;24.00;43.10;;;;;;10386054;28;20225;-68
2022/10/18 12:41:03;;;;;;;6.03;3.20;;;24.10;43.60;;;;;;10383297;28;20233;-69
2022/10/18 12:46:09;;;;;;;4.03;3.73;;;24.20;44.10;;;;;;10378447;28;20608;-68
2022/10/18 12:51:18;;;;;;;4.00;3.60;;;24.30;43.10;;;;;;10383587;28;20313;-68
2022/10/18 13:07:42;;;;;;;5.47;4.70;;;24.30;43.80;;;;;;10433579;28;20221;-68
2022/10/18 13:13:05;;;;;;;5.33;4.23;;;24.30;43.00;;;;;;10439940;28;20267;-68
2022/10/18 13:18:39;;;;;;;4.77;4.33;;;24.30;43.40;;;;;;10439317;28;20232;-71
2022/10/18 13:23:59;;;;;;;4.87;4.47;;;24.30;43.10;;;;;;10435535;28;20232;-71
2022/10/18 13:29:14;;;;;;;5.03;4.53;;;24.40;43.30;;;;;;10437586;28;20728;-70
2022/10/18 13:34:25;;;;;;;4.90;4.50;;;24.40;42.80;;;;;;10439084;28;20314;-71
2022/10/18 13:39:30;;;;;;;4.60;4.20;;;24.40;43.10;;;;;;10436899;28;20734;-71
2022/10/18 13:44:36;;;;;;;5.53;3.70;;;24.40;42.80;;;;;;10437111;28;20233;-71
2022/10/18 13:50:03;;;;;;;4.00;3.60;;;24.30;43.30;;;;;;10437057;28;20616;-71
2022/10/18 13:55:24;;;;;;;4.00;3.70;;;24.30;41.90;;;;;;10437752;28;20314;-70
2022/10/18 14:00:39;;;;;;;4.60;3.47;;;24.30;41.90;;;;;;10437362;28;20228;-70
2022/10/18 14:05:52;;;;;;;3.83;3.43;;;24.30;42.20;;;;;;10439426;28;20236;-71
2022/10/18 14:11:02;;;;;;;4.57;3.57;;;24.30;42.00;;;;;;10434710;28;20229;-71
2022/10/18 14:16:10;;;;;;;5.20;3.43;;;24.30;41.50;;;;;;10433792;28;20839;-70
2022/10/18 14:21:23;;;;;;;4.97;3.20;;;24.30;42.20;;;;;;10436801;28;20520;-71
2022/10/18 14:26:33;;;;;;;5.80;3.60;;;24.30;40.80;;;;;;10432044;28;20233;-71
2022/10/18 14:31:37;;;;;;;4.83;3.53;;;24.30;41.50;;;;;;10437540;28;20320;-71
2022/10/18 14:36:42;;;;;;;6.20;3.50;;;24.30;41.90;;;;;;10433150;28;20216;-71
2022/10/18 14:41:50;;;;;;;4.60;4.10;;;24.30;41.70;;;;;;10435926;28;20255;-71
2022/10/18 14:47:00;;;;;;;3.60;3.30;;;24.30;41.20;;;;;;10435737;28;20729;-71
2022/10/18 14:52:03;;;;;;;5.97;3.83;;;24.30;41.10;;;;;;10435182;28;20225;-71
2022/10/18 14:57:15;;;;;;;4.07;3.40;;;24.30;41.70;;;;;;10434695;28;20639;-71
2022/10/18 15:02:22;;;;;;;5.10;3.20;;;24.30;41.50;;;;;;10429223;28;20225;-71
2022/10/18 15:07:28;;;;;;;4.17;3.87;;;24.20;41.50;;;;;;10424736;28;20224;-71
2022/10/18 15:12:33;;;;;;;5.10;3.40;;;24.20;41.60;;;;;;10430331;28;20235;-72
2022/10/18 15:17:54;;;;;;;4.30;3.07;;;24.10;41.50;;;;;;10436443;28;20730;-71
2022/10/18 15:23:22;;;;;;;3.50;3.20;;;24.10;41.90;;;;;;10439078;28;20694;-71
2022/10/18 15:28:29;;;;;;;4.83;3.07;;;24.10;41.60;;;;;;10439686;28;20274;-72
2022/10/18 15:33:33;;;;;;;4.40;3.10;;;24.00;41.30;;;;;;10442398;28;20248;-72
2022/10/18 15:38:37;;;;;;;5.20;3.73;;;24.10;41.60;;;;;;10433894;28;20229;-71
2022/10/18 15:43:41;;;;;;;4.23;3.50;;;24.00;41.80;;;;;;10437695;28;20229;-72
2022/10/18 15:48:46;;;;;;;4.77;3.57;;;24.00;41.70;;;;;;10441447;28;20225;-72
2022/10/18 15:53:53;;;;;;;5.27;2.90;;;24.00;41.90;;;;;;10442606;28;20229;-72
2022/10/18 15:58:58;;;;;;;3.40;3.10;;;23.90;41.30;;;;;;10441579;28;20225;-72
2022/10/18 16:04:07;;;;;;;3.70;2.67;;;23.90;41.00;;;;;;10439696;28;20711;-70
2022/10/18 16:09:15;;;;;;;4.23;3.03;;;23.90;40.90;;;;;;10442988;28;20929;-71
2022/10/18 16:14:20;;;;;;;4.70;2.67;;;23.80;41.00;;;;;;10439389;28;20791;-72
2022/10/18 16:19:23;;;;;;;3.00;2.63;;;23.70;40.70;;;;;;10443315;28;20290;-72
2022/10/18 16:24:27;;;;;;;3.87;2.60;;;23.70;41.00;;;;;;10439121;28;20534;-71
2022/10/18 16:29:32;;;;;;;4.60;2.30;;;23.60;40.90;;;;;;10440792;28;20221;-71
2022/10/18 16:34:35;;;;;;;2.20;2.00;;;23.60;40.60;;;;;;10438964;28;20652;-71
2022/10/18 16:39:38;;;;;;;2.93;2.10;;;23.50;40.90;;;;;;10440908;28;20217;-71
2022/10/18 16:44:44;;;;;;;4.17;2.10;;;23.50;40.80;;;;;;10441849;28;20606;-72
2022/10/18 16:49:48;;;;;;;4.13;2.23;;;23.40;40.50;;;;;;10440052;28;20255;-71
2022/10/18 16:54:51;;;;;;;2.77;1.97;;;23.30;40.50;;;;;;10436745;28;20713;-71
2022/10/18 16:59:56;;;;;;;3.67;1.90;;;23.20;40.30;;;;;;10435056;28;20229;-71
2022/10/18 17:04:59;;;;;;;2.27;2.10;;;23.20;40.20;;;;;;10440005;28;20242;-71
2022/10/18 17:10:02;;;;;;;2.20;2.00;;;23.10;40.50;;;;;;10436473;28;20218;-70
2022/10/18 17:15:09;;;;;;;2.37;2.13;;;23.00;40.70;;;;;;10438937;28;20276;-71
2022/10/18 17:20:19;;;;;;;3.37;2.10;;;22.90;40.40;;;;;;10436363;28;20579;-71
2022/10/18 17:25:22;;;;;;;2.57;2.10;;;22.90;40.50;;;;;;10439024;28;20232;-71
2022/10/18 17:30:26;;;;;;;3.30;2.10;;;22.80;40.90;;;;;;10438006;28;20224;-71
2022/10/18 17:35:30;;;;;;;2.60;2.27;;;22.80;40.80;;;;;;10437441;28;20221;-71
2022/10/18 17:40:34;;;;;;;3.60;2.37;;;22.70;40.70;;;;;;10438613;28;20232;-71
2022/10/18 17:45:46;;;;;;;2.67;2.17;;;22.70;40.80;;;;;;10437633;28;20228;-71
2022/10/18 17:50:52;;;;;;;1.80;1.70;;;22.60;40.60;;;;;;10438832;28;20237;-71
2022/10/18 17:55:58;;;;;;;2.40;2.10;;;22.50;40.80;;;;;;10440756;28;20613;-71
2022/10/18 18:01:15;;;;;;;2.40;2.20;;;22.40;40.80;;;;;;10438216;28;20775;-71
2022/10/18 18:06:21;;;;;;;3.77;2.50;;;22.40;40.80;;;;;;10437485;28;20229;-71
2022/10/18 18:11:25;;;;;;;3.57;2.20;;;22.30;40.90;;;;;;10436699;28;20227;-71
2022/10/18 18:16:31;;;;;;;2.77;2.50;;;22.20;40.90;;;;;;10434779;28;20228;-72
2022/10/18 18:21:35;;;;;;;4.33;2.70;;;22.10;40.90;;;;;;10439691;28;20228;-72
2022/10/18 18:26:40;;;;;;;4.63;3.00;;;22.00;40.90;;;;;;10436020;28;20251;-72
2022/10/18 18:31:45;;;;;;;4.23;2.70;;;21.90;40.90;;;;;;10438368;28;20231;-71
2022/10/18 18:36:50;;;;;;;5.03;3.37;;;21.80;40.80;;;;;;10425016;28;20229;-71
2022/10/18 18:41:53;;;;;;;5.70;3.30;;;21.70;40.90;;;;;;10421011;28;20225;-71
2022/10/18 18:46:58;;;;;;;5.77;3.60;;;21.60;40.80;;;;;;10421163;28;20388;-71
2022/10/18 18:52:01;;;;;;;4.23;3.83;;;21.50;41.00;;;;;;10422144;28;21222;-71
2022/10/18 18:57:05;;;;;;;7.43;6.13;;;21.40;41.10;;;;;;10430494;28;20228;-71
2022/10/18 19:02:10;;;;;;;4.97;4.57;;;21.30;41.10;;;;;;10425103;28;20302;-71
2022/10/18 19:07:14;;;;;;;5.83;5.13;;;21.30;41.20;;;;;;10425247;28;20307;-71
2022/10/18 19:12:17;;;;;;;5.47;4.97;;;21.10;41.10;;;;;;10437110;28;20782;-71
2022/10/18 19:17:25;;;;;;;5.70;4.33;;;21.00;41.20;;;;;;10444105;28;20581;-71
2022/10/18 19:22:28;;;;;;;3.87;3.27;;;20.90;41.30;;;;;;10437666;28;20749;-71
2022/10/18 19:27:31;;;;;;;4.20;3.50;;;20.90;41.40;;;;;;10438717;28;20599;-71
2022/10/18 19:32:36;;;;;;;5.10;3.50;;;20.80;41.40;;;;;;10442431;28;20232;-70
2022/10/18 19:37:40;;;;;;;4.37;3.27;;;20.80;41.50;;;;;;10440809;28;21072;-67
2022/10/18 19:42:43;;;;;;;3.57;3.27;;;20.70;41.30;;;;;;10441138;28;20225;-71
2022/10/18 19:47:48;;;;;;;6.60;3.30;;;20.60;41.10;;;;;;10440422;28;20229;-67
2022/10/18 19:52:51;;;;;;;5.13;3.23;;;20.50;41.30;;;;;;10436092;28;20235;-71
2022/10/18 19:57:55;;;;;;;3.83;3.10;;;20.50;41.30;;;;;;10433619;28;20233;-70
2022/10/18 20:02:59;;;;;;;3.83;3.40;;;20.30;41.60;;;;;;10434724;28;20279;-68
2022/10/18 20:08:02;;;;;;;4.17;3.57;;;20.20;41.70;;;;;;10434790;28;20227;-70
2022/10/18 20:13:06;;;;;;;5.53;4.23;;;20.10;41.80;;;;;;10432417;28;20229;-71
2022/10/18 20:18:10;;;;;;;5.97;5.43;;;20.00;42.60;;;;;;10436469;28;20212;-71
2022/10/18 20:23:14;;;;;;;5.57;4.67;;;19.80;42.20;;;;;;10434805;28;20232;-71
2022/10/18 20:28:17;;;;;;;4.70;4.30;;;19.60;42.20;;;;;;10436420;28;20225;-67
2022/10/18 20:33:22;;;;;;;5.80;4.90;;;19.50;42.60;;;;;;10435318;28;20243;-68
2022/10/18 20:38:25;;;;;;;5.00;4.50;;;19.40;42.80;;;;;;10433329;28;20302;-68
2022/10/18 20:43:28;;;;;;;5.70;4.27;;;19.40;42.50;;;;;;10434574;28;20283;-67
2022/10/18 20:48:34;;;;;;;4.73;4.33;;;19.40;42.70;;;;;;10433220;28;20232;-68
2022/10/18 20:53:37;;;;;;;5.77;4.13;;;19.20;42.90;;;;;;10434919;28;20225;-70
2022/10/18 20:58:42;;;;;;;4.63;4.00;;;19.20;42.80;;;;;;10439442;28;20706;-70
2022/10/18 21:03:48;;;;;;;4.80;4.30;;;19.30;42.90;;;;;;10439738;28;20307;-70
2022/10/18 21:08:53;;;;;;;4.93;4.53;;;19.30;43.00;;;;;;10441201;28;20217;-70
2022/10/18 21:14:01;;;;;;;6.40;5.70;;;19.20;42.70;;;;;;10437616;28;20233;-71
2022/10/18 21:19:07;;;;;;;7.10;5.20;;;19.20;42.90;;;;;;10437995;28;20300;-70
2022/10/18 21:24:11;;;;;;;5.70;5.13;;;19.10;43.00;;;;;;10434133;28;20233;-68
2022/10/18 21:29:15;;;;;;;5.20;4.50;;;19.10;42.90;;;;;;10437906;28;20247;-68
2022/10/18 21:34:26;;;;;;;4.60;4.10;;;19.10;42.70;;;;;;10438346;28;20918;-68
2022/10/18 21:39:29;;;;;;;6.27;4.40;;;19.00;42.70;;;;;;10438045;28;20232;-68
2022/10/18 21:44:32;;;;;;;4.00;3.53;;;19.00;42.40;;;;;;10437595;28;20574;-68
2022/10/18 21:49:37;;;;;;;4.90;4.13;;;18.90;42.50;;;;;;10438996;28;20228;-68
2022/10/18 21:54:40;;;;;;;5.70;3.60;;;18.80;42.60;;;;;;10433167;28;20228;-71
2022/10/18 21:59:43;;;;;;;5.50;3.53;;;18.80;42.50;;;;;;10432136;28;20252;-71
2022/10/18 22:04:48;;;;;;;6.90;3.70;;;18.80;42.60;;;;;;10437276;28;20220;-70
2022/10/18 22:09:51;;;;;;;4.50;4.10;;;18.70;42.70;;;;;;10433867;28;20994;-70
2022/10/18 22:14:54;;;;;;;4.83;4.33;;;18.70;42.70;;;;;;10436326;28;20600;-70
2022/10/18 22:19:59;;;;;;;4.60;4.20;;;18.60;43.00;;;;;;10436440;28;20274;-70
2022/10/18 22:25:02;;;;;;;4.20;3.90;;;18.50;43.50;;;;;;10437940;28;20231;-70
2022/10/18 22:30:06;;;;;;;4.47;4.07;;;18.40;43.20;;;;;;10435980;28;20232;-67
2022/10/18 22:35:11;;;;;;;4.60;4.20;;;18.30;43.70;;;;;;10437154;28;20232;-70
2022/10/18 22:40:14;;;;;;;5.70;4.80;;;18.20;44.30;;;;;;10437005;28;20232;-68
2022/10/18 22:45:17;;;;;;;4.83;4.43;;;18.20;44.40;;;;;;10436359;28;20709;-68
2022/10/18 22:50:22;;;;;;;5.40;4.70;;;18.20;44.60;;;;;;10437356;28;20576;-71
2022/10/18 22:55:25;;;;;;;5.63;4.43;;;18.10;45.10;;;;;;10438210;28;20239;-71
2022/10/18 23:00:28;;;;;;;7.43;4.40;;;18.10;44.80;;;;;;10436824;28;20221;-70
2022/10/18 23:05:37;;;;;;;4.87;4.37;;;18.20;44.90;;;;;;10434152;28;20294;-68
2022/10/18 23:10:42;;;;;;;4.43;4.03;;;18.20;46.00;;;;;;10434644;28;20217;-68
2022/10/18 23:15:45;;;;;;;4.53;4.13;;;18.20;45.40;;;;;;10437381;28;20233;-67
2022/10/18 23:20:50;;;;;;;4.60;4.20;;;18.30;45.30;;;;;;10434122;28;20271;-67
2022/10/18 23:25:54;;;;;;;6.20;4.47;;;18.40;45.70;;;;;;10435618;28;20722;-67
2022/10/18 23:30:57;;;;;;;4.43;3.93;;;18.40;45.50;;;;;;10434330;28;20236;-67
2022/10/18 23:36:01;;;;;;;4.30;3.90;;;18.50;45.40;;;;;;10433558;28;20236;-67
2022/10/18 23:41:06;;;;;;;5.57;5.03;;;18.50;45.60;;;;;;10438719;28;20634;-69
2022/10/18 23:46:10;;;;;;;5.20;4.53;;;18.50;45.50;;;;;;10441445;28;20738;-67
2022/10/18 23:51:15;;;;;;;4.93;4.53;;;18.60;45.50;;;;;;10442665;28;20270;-70
2022/10/18 23:56:18;;;;;;;5.30;3.93;;;18.60;45.90;;;;;;10439098;28;20217;-70
